METAR
LICR 250850Z VRB01KT CAVOK 20/13 Q1015
TAF